Hillside, New Jersey
Current Conditions -  °F | °C
As of 8:51 PM on Wednesday 26 Nov 2014 (Local Time) from KEWR Reporting Station
Light Rain Light Rain  
Wind Chill: 27°   Ceiling: 1500
Heat Index: 36°   Visibility: 9mi
Dew Point: 33°   Wind: 14mph
Humidity: 89%   Direction: 330°NNW
Pressure: 29.81"   Gusts: NA
Location:  40.7°N, 74.23°W
Report Text: KEWR 270151Z 33012KT 9SM -RA SCT010 BKN015 OVC032 02/01 A2981 RMK AO2 PK WND 34029/0102 SNE27 SLP093 BKN V SCT P0004 T00220006
Loading
Personal Weather Stations






























Interactive Weather Map New forecast layout! Learn more

10-Day Weather Forecast

Advertisements
Track Severe Weather on mobile